createdAt,value
2023-09-06T00:01:18.979Z,83.96
2023-09-06T00:03:47.022Z,83.63
2023-09-06T00:06:16.690Z,83.72
2023-09-06T00:08:44.684Z,83.63
2023-09-06T00:11:12.678Z,83.60
2023-09-06T00:13:41.509Z,83.21
2023-09-06T00:16:09.434Z,82.89
2023-09-06T00:18:39.044Z,83.72
2023-09-06T00:21:07.105Z,83.63
2023-09-06T00:23:36.405Z,84.14
2023-09-06T00:26:04.567Z,84.59
2023-09-06T00:28:32.464Z,84.97
2023-09-06T00:31:00.454Z,85.44
2023-09-06T00:33:30.764Z,84.74
2023-09-06T00:35:59.313Z,84.79
2023-09-06T00:38:27.530Z,84.97
2023-09-06T00:40:57.119Z,84.65
2023-09-06T00:43:25.228Z,85.14
2023-09-06T00:45:54.744Z,84.30
2023-09-06T00:48:25.104Z,84.03
2023-09-06T00:50:55.426Z,84.39
2023-09-06T00:53:25.218Z,84.88
2023-09-06T00:55:53.319Z,83.62
2023-09-06T00:58:22.898Z,83.31
2023-09-06T01:00:52.501Z,84.38
2023-09-06T01:03:21.147Z,84.03
2023-09-06T01:05:52.045Z,83.72
2023-09-06T01:08:26.248Z,84.08
2023-09-06T01:10:54.674Z,82.58
2023-09-06T01:13:24.008Z,82.67
2023-09-06T01:15:53.767Z,83.33
2023-09-06T01:18:22.673Z,83.80
2023-09-06T01:20:55.277Z,84.57
2023-09-06T01:23:34.698Z,85.27
2023-09-06T01:26:03.636Z,85.85
2023-09-06T01:28:32.615Z,86.00
2023-09-06T01:31:01.546Z,85.93
2023-09-06T01:33:30.004Z,86.03
2023-09-06T01:35:58.555Z,86.50
2023-09-06T01:38:26.908Z,86.84
2023-09-06T01:40:56.407Z,87.14
2023-09-06T01:43:24.326Z,85.35
2023-09-06T01:45:53.282Z,85.28
2023-09-06T01:48:23.267Z,85.90
2023-09-06T01:50:51.547Z,85.26
2023-09-06T01:53:19.463Z,85.77
2023-09-06T01:55:47.360Z,85.15
2023-09-06T01:58:18.600Z,83.87
2023-09-06T02:00:47.060Z,83.16
2023-09-06T02:03:17.713Z,83.26
2023-09-06T02:05:45.806Z,83.39
2023-09-06T02:08:14.457Z,84.59
2023-09-06T02:10:43.198Z,84.84
2023-09-06T02:13:11.220Z,84.54
2023-09-06T02:15:40.963Z,82.72
2023-09-06T02:18:10.867Z,82.46
2023-09-06T02:20:41.435Z,82.40
2023-09-06T02:23:10.264Z,83.13
2023-09-06T02:25:38.324Z,84.43
2023-09-06T02:28:08.593Z,84.89
2023-09-06T02:30:38.900Z,85.47
2023-09-06T02:33:10.885Z,85.38
2023-09-06T02:35:41.655Z,86.30
2023-09-06T02:38:10.897Z,85.95
2023-09-06T02:40:41.875Z,86.25
2023-09-06T02:43:12.120Z,87.45
2023-09-06T02:45:40.585Z,87.35
2023-09-06T02:48:13.713Z,86.66
2023-09-06T02:50:42.218Z,86.92
2023-09-06T02:53:21.252Z,86.68
2023-09-06T02:55:52.778Z,87.88
2023-09-06T02:58:25.032Z,88.12
2023-09-06T03:00:57.045Z,87.68
2023-09-06T03:03:29.056Z,88.02
2023-09-06T03:05:59.016Z,87.29
2023-09-06T03:08:29.641Z,87.18
2023-09-06T03:10:58.710Z,86.79
2023-09-06T03:13:27.105Z,86.95
2023-09-06T03:15:55.301Z,86.30
2023-09-06T03:18:23.782Z,86.54
2023-09-06T03:20:56.446Z,86.07
2023-09-06T03:23:26.133Z,86.51
2023-09-06T03:26:00.377Z,86.36
2023-09-06T03:28:42.181Z,86.59
2023-09-06T03:31:15.108Z,86.34
2023-09-06T03:33:43.241Z,85.75
2023-09-06T03:36:12.850Z,85.13
2023-09-06T03:38:41.075Z,85.07
2023-09-06T03:41:09.274Z,86.47
2023-09-06T03:43:38.396Z,86.30
2023-09-06T03:46:11.258Z,85.94
2023-09-06T03:48:39.625Z,86.26
2023-09-06T03:51:08.532Z,86.83
2023-09-06T03:53:39.278Z,87.73
2023-09-06T03:56:11.796Z,87.78
2023-09-06T03:58:43.571Z,87.76
2023-09-06T04:01:16.778Z,87.43
2023-09-06T04:03:47.732Z,88.62
2023-09-06T04:06:17.478Z,88.43
2023-09-06T04:08:49.199Z,89.14
2023-09-06T04:11:17.992Z,89.48
2023-09-06T04:13:45.975Z,89.00
2023-09-06T04:16:17.402Z,88.63
2023-09-06T04:18:47.022Z,89.02
2023-09-06T04:21:15.340Z,88.44
2023-09-06T04:23:46.012Z,89.33
2023-09-06T04:26:21.314Z,89.92
2023-09-06T04:28:50.156Z,89.53
2023-09-06T04:31:20.423Z,89.61
2023-09-06T04:33:49.684Z,88.98
2023-09-06T04:36:22.136Z,89.04
2023-09-06T04:38:57.470Z,89.11
2023-09-06T04:41:28.119Z,89.73
2023-09-06T04:44:00.880Z,89.61
2023-09-06T04:46:30.408Z,89.12
2023-09-06T04:48:58.601Z,88.46
2023-09-06T04:51:26.747Z,88.02
2023-09-06T04:53:56.021Z,88.27
2023-09-06T04:56:33.225Z,88.23
2023-09-06T04:59:01.705Z,88.16
2023-09-06T05:01:29.940Z,88.50
2023-09-06T05:03:58.842Z,88.53
2023-09-06T05:06:28.600Z,88.89
2023-09-06T05:08:57.328Z,87.95
2023-09-06T05:11:27.262Z,89.09
2023-09-06T05:13:57.681Z,89.21
2023-09-06T05:16:28.640Z,89.47
2023-09-06T05:18:56.940Z,89.15
2023-09-06T05:21:29.160Z,88.90
2023-09-06T05:23:57.213Z,89.77
2023-09-06T05:26:25.412Z,89.94
2023-09-06T05:28:53.327Z,89.77
2023-09-06T05:31:23.010Z,90.55
2023-09-06T05:33:52.917Z,90.55
2023-09-06T05:36:24.103Z,89.55
2023-09-06T05:38:52.180Z,89.30
2023-09-06T05:41:23.450Z,88.07
2023-09-06T05:43:51.608Z,86.92
2023-09-06T05:46:30.425Z,85.92
2023-09-06T05:49:05.907Z,83.71
2023-09-06T05:51:37.827Z,81.22
2023-09-06T05:54:06.888Z,80.01
2023-09-06T05:56:37.258Z,77.78
2023-09-06T05:59:06.706Z,75.23
2023-09-06T06:01:35.025Z,72.40
2023-09-06T06:04:04.567Z,71.89
2023-09-06T06:06:32.955Z,68.16
2023-09-06T06:09:00.841Z,66.60
2023-09-06T06:12:23.754Z,64.28
2023-09-06T06:14:52.948Z,62.93
2023-09-06T06:17:21.176Z,60.43
2023-09-06T06:19:51.274Z,60.22
2023-09-06T06:22:19.262Z,60.24
2023-09-06T06:24:48.612Z,57.26
2023-09-06T06:27:16.635Z,56.82
2023-09-06T06:29:44.724Z,56.63
2023-09-06T06:32:12.960Z,55.10
2023-09-06T06:34:40.920Z,52.39
2023-09-06T06:37:10.196Z,52.14
2023-09-06T06:39:38.672Z,51.95
2023-09-06T06:42:07.938Z,50.80
2023-09-06T06:44:46.691Z,48.79
2023-09-06T06:47:14.671Z,49.34
2023-09-06T06:49:42.634Z,47.49
2023-09-06T06:52:12.025Z,47.96
2023-09-06T06:54:42.374Z,45.90
2023-09-06T06:57:13.749Z,44.82
2023-09-06T06:59:41.773Z,43.84
2023-09-06T07:02:09.725Z,43.84
2023-09-06T07:04:38.226Z,43.04
2023-09-06T07:07:06.207Z,42.46
2023-09-06T07:09:35.376Z,41.53
2023-09-06T07:12:03.248Z,39.93
2023-09-06T07:14:31.122Z,42.51
2023-09-06T07:17:00.262Z,41.66
2023-09-06T07:19:28.310Z,42.97
2023-09-06T07:21:56.240Z,42.33
2023-09-06T07:24:24.205Z,41.44
2023-09-06T07:26:53.767Z,41.64
2023-09-06T07:29:21.736Z,41.47
2023-09-06T07:31:50.212Z,41.24
2023-09-06T07:34:18.080Z,40.65
2023-09-06T07:36:46.048Z,38.79
2023-09-06T07:39:13.883Z,39.24
2023-09-06T07:41:42.847Z,38.78
2023-09-06T07:44:13.104Z,37.26
2023-09-06T07:46:42.498Z,38.19
2023-09-06T07:49:10.537Z,37.75
2023-09-06T07:51:38.654Z,37.63
2023-09-06T07:54:06.703Z,39.16
2023-09-06T07:56:34.599Z,39.52
2023-09-06T07:59:02.592Z,41.48
2023-09-06T08:01:33.135Z,41.43
2023-09-06T08:04:01.251Z,42.86
2023-09-06T08:06:29.327Z,41.47
2023-09-06T08:08:59.396Z,42.92
2023-09-06T08:11:27.592Z,41.38
2023-09-06T08:13:55.478Z,42.90
2023-09-06T08:16:23.498Z,42.61
2023-09-06T08:18:52.767Z,40.35
2023-09-06T08:21:20.772Z,40.38
2023-09-06T08:23:48.738Z,40.19
2023-09-06T08:26:16.718Z,40.82
2023-09-06T08:28:44.654Z,42.44
2023-09-06T08:31:12.675Z,40.49
2023-09-06T08:33:40.687Z,40.88
2023-09-06T08:36:10.263Z,40.52
2023-09-06T08:38:38.159Z,41.18
2023-09-06T08:41:06.926Z,43.06
2023-09-06T08:43:37.615Z,43.39
2023-09-06T08:46:13.917Z,44.36
2023-09-06T08:48:43.323Z,42.16
2023-09-06T08:51:13.322Z,40.91
2023-09-06T08:53:42.443Z,40.78
2023-09-06T08:56:10.888Z,39.37
2023-09-06T08:58:38.773Z,40.78
2023-09-06T09:01:06.583Z,39.97
2023-09-06T09:03:35.878Z,40.03
2023-09-06T09:06:07.593Z,41.14
2023-09-06T09:08:37.203Z,41.78
2023-09-06T09:11:12.475Z,41.14
2023-09-06T09:13:40.441Z,41.90
2023-09-06T09:16:09.115Z,41.01
2023-09-06T09:18:37.424Z,40.33
2023-09-06T09:21:05.624Z,40.07
2023-09-06T09:23:33.835Z,40.54
2023-09-06T09:26:03.169Z,39.95
2023-09-06T09:28:35.193Z,40.08
2023-09-06T09:31:04.109Z,40.20
2023-09-06T09:33:32.239Z,39.20
2023-09-06T09:36:00.355Z,44.30
2023-09-06T09:38:28.443Z,43.64
2023-09-06T09:41:07.672Z,41.44
2023-09-06T09:43:36.537Z,41.04
2023-09-06T09:46:05.580Z,41.06
2023-09-06T09:48:33.902Z,41.62
2023-09-06T09:51:05.757Z,42.71
2023-09-06T09:53:34.958Z,44.53
2023-09-06T09:56:09.087Z,42.69
2023-09-06T09:58:37.980Z,42.56
2023-09-06T10:01:07.625Z,41.58
2023-09-06T10:03:36.639Z,42.86
2023-09-06T10:06:05.366Z,42.15
2023-09-06T10:08:36.597Z,43.03
2023-09-06T10:11:08.805Z,42.52
2023-09-06T10:13:39.166Z,43.34
2023-09-06T10:16:09.503Z,42.65
2023-09-06T10:18:38.361Z,40.96
2023-09-06T10:21:07.524Z,40.31
2023-09-06T10:23:42.627Z,40.80
2023-09-06T10:26:12.019Z,40.85
2023-09-06T10:28:39.982Z,41.30
2023-09-06T10:31:10.763Z,42.51
2023-09-06T10:34:00.544Z,42.39
2023-09-06T10:36:31.399Z,40.78
2023-09-06T10:39:19.941Z,41.20
2023-09-06T10:42:20.982Z,40.32
2023-09-06T10:45:16.275Z,40.56
2023-09-06T10:47:44.853Z,39.71
2023-09-06T10:50:17.837Z,40.25
2023-09-06T10:52:49.475Z,39.54
2023-09-06T10:55:20.132Z,39.42
2023-09-06T10:57:57.439Z,39.66
2023-09-06T11:00:32.260Z,39.69
2023-09-06T11:03:18.839Z,39.86
2023-09-06T11:05:57.915Z,40.43
2023-09-06T11:08:27.964Z,39.98
2023-09-06T11:11:01.745Z,38.83
2023-09-06T11:13:34.157Z,39.32
2023-09-06T11:16:03.316Z,39.66
2023-09-06T11:18:33.775Z,39.07
2023-09-06T11:21:02.025Z,38.68
2023-09-06T11:23:29.897Z,39.19
2023-09-06T11:25:59.714Z,40.57
2023-09-06T11:28:30.123Z,38.97
2023-09-06T11:31:01.724Z,39.28
2023-09-06T11:33:34.408Z,38.11
2023-09-06T11:36:05.246Z,38.95
2023-09-06T11:38:36.428Z,38.68
2023-09-06T11:41:08.394Z,38.65
2023-09-06T11:43:42.681Z,38.27
2023-09-06T11:46:15.350Z,39.83
2023-09-06T11:48:45.020Z,41.68
2023-09-06T11:51:14.773Z,40.36
2023-09-06T11:53:46.902Z,40.60
2023-09-06T11:56:20.940Z,41.23
2023-09-06T11:58:50.965Z,40.58
2023-09-06T12:01:25.856Z,39.46
2023-09-06T12:03:57.389Z,39.52
2023-09-06T12:06:28.008Z,39.61
2023-09-06T12:08:56.145Z,39.44
2023-09-06T12:11:25.832Z,41.37
2023-09-06T12:13:55.574Z,40.83
2023-09-06T12:16:26.197Z,41.00
2023-09-06T12:18:54.827Z,38.77
2023-09-06T12:21:23.965Z,39.54
2023-09-06T12:23:52.376Z,39.32
2023-09-06T12:26:21.845Z,39.35
2023-09-06T12:28:51.221Z,39.32
2023-09-06T12:31:19.433Z,39.75
2023-09-06T12:33:51.060Z,40.39
2023-09-06T12:36:20.202Z,40.55
2023-09-06T12:38:48.833Z,41.70
2023-09-06T12:41:16.874Z,40.33
2023-09-06T12:43:44.799Z,42.13
2023-09-06T12:46:13.919Z,42.15
2023-09-06T12:48:44.162Z,41.30
2023-09-06T12:51:14.208Z,42.04
2023-09-06T12:53:42.337Z,41.77
2023-09-06T12:56:15.261Z,43.82
2023-09-06T12:58:44.614Z,42.51
2023-09-06T13:01:13.754Z,42.31
2023-09-06T13:03:44.979Z,41.75
2023-09-06T13:06:14.577Z,41.33
2023-09-06T13:08:43.325Z,42.15
2023-09-06T13:11:13.969Z,42.53
2023-09-06T13:13:42.392Z,42.18
2023-09-06T13:16:10.477Z,43.33
2023-09-06T13:18:39.810Z,43.00
2023-09-06T13:21:08.163Z,42.59
2023-09-06T13:23:37.551Z,44.08
2023-09-06T13:26:05.620Z,43.71
2023-09-06T13:28:35.055Z,44.30
2023-09-06T13:31:04.585Z,43.53
2023-09-06T13:33:35.752Z,43.32
2023-09-06T13:36:05.665Z,43.69
2023-09-06T13:38:33.615Z,44.91
2023-09-06T13:41:02.936Z,44.52
2023-09-06T13:43:31.217Z,44.09
2023-09-06T13:46:00.909Z,44.08
2023-09-06T13:48:28.988Z,43.93
2023-09-06T13:50:57.085Z,43.80
2023-09-06T13:53:24.980Z,45.08
2023-09-06T13:55:52.914Z,45.31
2023-09-06T13:58:22.584Z,44.43
2023-09-06T14:00:55.755Z,45.87
2023-09-06T14:03:24.072Z,46.26
2023-09-06T14:05:52.110Z,45.82
2023-09-06T14:08:20.066Z,46.24
2023-09-06T14:10:52.445Z,46.48
2023-09-06T14:13:20.345Z,46.51
2023-09-06T14:15:49.600Z,47.21
2023-09-06T14:18:19.650Z,46.22
2023-09-06T14:20:47.704Z,46.58
2023-09-06T14:23:16.292Z,46.86
2023-09-06T14:25:44.516Z,46.54
2023-09-06T14:28:12.720Z,46.46
2023-09-06T14:30:41.371Z,46.29
2023-09-06T14:33:10.692Z,46.73
2023-09-06T14:35:39.736Z,46.63
2023-09-06T14:38:08.049Z,45.68
2023-09-06T14:40:39.528Z,45.96
2023-09-06T14:43:07.673Z,46.66
2023-09-06T14:45:35.640Z,46.18
2023-09-06T14:48:04.402Z,46.64
2023-09-06T14:50:34.567Z,45.86
2023-09-06T14:53:03.051Z,46.32
2023-09-06T14:55:32.488Z,46.03
2023-09-06T14:58:07.446Z,45.82
2023-09-06T15:00:35.407Z,45.28
2023-09-06T15:03:03.694Z,45.25
2023-09-06T15:05:33.177Z,44.45
2023-09-06T15:08:01.878Z,45.06
2023-09-06T15:10:33.068Z,45.37
2023-09-06T15:13:01.347Z,45.57
2023-09-06T15:15:29.328Z,45.44
2023-09-06T15:17:59.973Z,46.68
2023-09-06T15:20:28.468Z,46.67
2023-09-06T15:22:57.805Z,46.27
2023-09-06T15:25:26.919Z,45.97
2023-09-06T15:27:55.912Z,45.75
2023-09-06T15:30:25.231Z,46.93
2023-09-06T15:32:53.320Z,44.93
2023-09-06T15:35:26.637Z,45.29
2023-09-06T15:38:04.368Z,45.82
2023-09-06T15:40:36.226Z,46.97
2023-09-06T15:43:05.253Z,46.68
2023-09-06T15:45:33.307Z,47.06
2023-09-06T15:48:01.371Z,47.30
2023-09-06T15:50:30.953Z,47.72
2023-09-06T15:53:00.544Z,47.43
2023-09-06T15:55:28.483Z,47.46
2023-09-06T15:57:56.477Z,47.36
2023-09-06T16:00:32.454Z,47.66
2023-09-06T16:03:01.758Z,47.56
2023-09-06T16:05:30.147Z,48.19
2023-09-06T16:07:59.880Z,49.29
2023-09-06T16:10:28.117Z,48.53
2023-09-06T16:12:56.637Z,48.90
2023-09-06T16:15:24.739Z,49.35
2023-09-06T16:17:53.123Z,49.98
2023-09-06T16:20:21.153Z,49.52
2023-09-06T16:22:49.253Z,50.42
2023-09-06T16:25:19.737Z,50.51
2023-09-06T16:27:47.953Z,52.00
2023-09-06T16:30:16.137Z,52.32
2023-09-06T16:32:44.272Z,52.99
2023-09-06T16:35:12.480Z,53.71
2023-09-06T16:37:40.840Z,53.68
2023-09-06T16:40:12.234Z,54.22
2023-09-06T16:42:42.924Z,54.69
2023-09-06T16:45:11.445Z,55.74
2023-09-06T16:47:39.465Z,55.77
2023-09-06T16:50:08.485Z,56.29
2023-09-06T16:52:38.188Z,56.35
2023-09-06T16:55:07.246Z,56.57
2023-09-06T16:57:35.258Z,56.85
2023-09-06T17:00:05.740Z,56.97
2023-09-06T17:02:33.938Z,57.08
2023-09-06T17:05:01.980Z,57.29
2023-09-06T17:07:30.036Z,57.17
2023-09-06T17:09:58.016Z,57.55
2023-09-06T17:12:26.244Z,57.23
2023-09-06T17:14:55.851Z,57.27
2023-09-06T17:17:25.280Z,57.49
2023-09-06T17:19:53.255Z,57.78
2023-09-06T17:22:21.191Z,58.03
2023-09-06T17:24:50.542Z,58.14
2023-09-06T17:27:18.552Z,58.23
2023-09-06T17:29:48.323Z,58.58
2023-09-06T17:32:16.400Z,58.87
2023-09-06T17:34:45.872Z,59.30
2023-09-06T17:37:13.888Z,59.53
2023-09-06T17:39:42.079Z,59.68
2023-09-06T17:42:10.061Z,60.07
2023-09-06T17:44:38.737Z,59.85
2023-09-06T17:47:08.076Z,60.28
2023-09-06T17:49:36.348Z,60.77
2023-09-06T17:52:06.886Z,60.80
2023-09-06T17:54:34.919Z,61.14
2023-09-06T17:57:05.471Z,61.29
2023-09-06T17:59:33.485Z,61.48
2023-09-06T18:02:04.494Z,61.69
2023-09-06T18:04:32.824Z,62.05
2023-09-06T18:07:01.212Z,62.47
2023-09-06T18:09:34.506Z,62.52
2023-09-06T18:12:03.256Z,62.86
2023-09-06T18:14:31.157Z,63.07
2023-09-06T18:16:59.547Z,63.76
2023-09-06T18:19:27.576Z,63.20
2023-09-06T18:21:58.043Z,63.28
2023-09-06T18:24:26.053Z,63.12
2023-09-06T18:29:31.574Z,62.88
2023-09-06T18:31:59.761Z,62.91
2023-09-06T18:34:27.787Z,62.96
2023-09-06T18:36:55.856Z,63.06
2023-09-06T18:39:23.926Z,63.72
2023-09-06T18:41:52.360Z,63.69
2023-09-06T18:44:21.593Z,63.95
2023-09-06T18:46:49.653Z,64.01
2023-09-06T18:49:18.118Z,64.08
2023-09-06T18:51:46.033Z,64.43
2023-09-06T18:54:13.957Z,64.32
2023-09-06T18:56:41.937Z,64.53
2023-09-06T18:59:10.110Z,64.85
2023-09-06T19:01:39.469Z,64.79
2023-09-06T19:04:07.608Z,65.07
2023-09-06T19:06:36.340Z,64.97
2023-09-06T19:09:09.314Z,65.26
2023-09-06T19:11:37.691Z,65.12
2023-09-06T19:14:05.946Z,65.09
2023-09-06T19:16:34.133Z,65.31
2023-09-06T19:19:03.520Z,65.27
2023-09-06T19:21:31.479Z,65.71
2023-09-06T19:23:59.472Z,65.62
2023-09-06T19:26:27.368Z,65.55
2023-09-06T19:28:55.340Z,65.56
2023-09-06T19:31:23.354Z,65.91
2023-09-06T19:33:51.361Z,66.09
2023-09-06T19:36:20.727Z,66.19
2023-09-06T19:38:48.718Z,66.53
2023-09-06T19:41:16.990Z,66.75
2023-09-06T19:43:44.951Z,66.70
2023-09-06T19:46:12.894Z,66.99
2023-09-06T19:48:54.604Z,66.96
2023-09-06T19:51:30.928Z,67.10
2023-09-06T19:53:59.021Z,67.21
2023-09-06T19:56:26.922Z,67.12
2023-09-06T19:58:55.456Z,67.27
2023-09-06T20:01:23.428Z,67.25
2023-09-06T20:03:51.607Z,67.55
2023-09-06T20:06:19.587Z,67.64
2023-09-06T20:08:48.911Z,67.53
2023-09-06T20:11:19.088Z,68.08
2023-09-06T20:13:47.080Z,68.25
2023-09-06T20:16:15.144Z,68.53
2023-09-06T20:18:43.153Z,68.80
2023-09-06T20:21:11.187Z,69.01
2023-09-06T20:23:39.189Z,68.74
2023-09-06T20:26:08.655Z,68.46
2023-09-06T20:28:37.187Z,68.58
2023-09-06T20:31:05.235Z,68.59
2023-09-06T20:33:33.222Z,69.09
2023-09-06T20:36:01.281Z,68.83
2023-09-06T20:38:29.511Z,69.06
2023-09-06T20:41:01.180Z,68.60
2023-09-06T20:43:31.583Z,69.08
2023-09-06T20:45:59.923Z,69.12
2023-09-06T20:48:30.056Z,69.37
2023-09-06T20:51:02.293Z,69.49
2023-09-06T20:53:31.443Z,68.95
2023-09-06T20:56:00.459Z,69.35
2023-09-06T20:58:29.970Z,69.40
2023-09-06T21:00:58.180Z,68.96
2023-09-06T21:03:26.795Z,69.33
2023-09-06T21:05:58.649Z,69.31
2023-09-06T21:08:26.675Z,69.67
2023-09-06T21:10:55.054Z,69.45
2023-09-06T21:13:23.252Z,69.45
2023-09-06T21:15:53.373Z,69.67
2023-09-06T21:18:21.552Z,69.32
2023-09-06T21:20:49.581Z,69.77
2023-09-06T21:23:17.581Z,69.20
2023-09-06T21:25:45.597Z,69.70
2023-09-06T21:28:14.250Z,69.40
2023-09-06T21:30:43.151Z,69.81
2023-09-06T21:33:12.428Z,70.60
2023-09-06T21:35:44.735Z,70.40
2023-09-06T21:38:13.413Z,70.96
2023-09-06T21:40:43.368Z,70.56
2023-09-06T21:43:18.572Z,70.71
2023-09-06T21:45:48.029Z,71.25
2023-09-06T21:48:18.248Z,71.39
2023-09-06T21:50:50.073Z,70.87
2023-09-06T21:53:18.260Z,71.18
2023-09-06T21:55:46.225Z,71.31
2023-09-06T21:58:14.159Z,71.30
2023-09-06T22:01:02.820Z,70.84
2023-09-06T22:03:50.815Z,71.06
2023-09-06T22:06:37.151Z,71.87
2023-09-06T22:09:24.500Z,71.47
2023-09-06T22:12:11.378Z,71.72
2023-09-06T22:14:39.273Z,71.33
2023-09-06T22:17:07.200Z,71.12
2023-09-06T22:19:36.514Z,71.12
2023-09-06T22:22:04.585Z,71.89
2023-09-06T22:24:32.490Z,72.50
2023-09-06T22:27:00.385Z,72.33
2023-09-06T22:29:28.459Z,73.34
2023-09-06T22:31:56.543Z,72.93
2023-09-06T22:34:24.587Z,71.85
2023-09-06T22:36:53.898Z,71.33
2023-09-06T22:39:21.804Z,71.98
2023-09-06T22:41:49.680Z,72.57
2023-09-06T22:44:17.530Z,72.94
2023-09-06T22:46:45.792Z,73.33
2023-09-06T22:49:13.810Z,74.38
2023-09-06T22:51:44.780Z,74.72
2023-09-06T22:54:14.200Z,75.24
2023-09-06T22:56:42.064Z,74.42
2023-09-06T22:59:09.962Z,73.74
2023-09-06T23:01:37.966Z,74.44
2023-09-06T23:04:07.349Z,74.81
2023-09-06T23:06:36.999Z,73.81
2023-09-06T23:09:08.079Z,73.85
2023-09-06T23:11:37.718Z,74.33
2023-09-06T23:14:06.757Z,74.34
2023-09-06T23:16:36.926Z,74.80
2023-09-06T23:19:07.583Z,75.54
2023-09-06T23:21:39.329Z,76.17
2023-09-06T23:24:12.917Z,77.26
2023-09-06T23:26:47.246Z,78.06
2023-09-06T23:29:17.297Z,78.49
2023-09-06T23:31:54.493Z,78.35
2023-09-06T23:34:25.654Z,78.90
2023-09-06T23:36:55.609Z,78.80
2023-09-06T23:39:23.909Z,78.89
2023-09-06T23:41:56.031Z,78.89
2023-09-06T23:44:24.120Z,78.95
2023-09-06T23:46:52.502Z,77.92
2023-09-06T23:49:21.695Z,76.85
2023-09-06T23:51:50.580Z,76.29
2023-09-06T23:54:21.237Z,77.25
2023-09-06T23:56:54.229Z,76.19
2023-09-06T23:59:22.172Z,76.84
